sensor_id;sensor_type;location;lat;lon;timestamp;temperature;humidity
80495;DHT22;69819;48.798;11.770;2023-05-10T00:00:14;19.70;42.60
80495;DHT22;69819;48.798;11.770;2023-05-10T00:02:40;19.70;42.90
80495;DHT22;69819;48.798;11.770;2023-05-10T00:05:06;19.70;43.30
80495;DHT22;69819;48.798;11.770;2023-05-10T00:07:33;19.70;44.00
80495;DHT22;69819;48.798;11.770;2023-05-10T00:09:58;19.70;44.50
80495;DHT22;69819;48.798;11.770;2023-05-10T00:12:24;19.70;44.90
80495;DHT22;69819;48.798;11.770;2023-05-10T00:14:50;19.70;45.10
80495;DHT22;69819;48.798;11.770;2023-05-10T00:17:16;19.80;45.50
80495;DHT22;69819;48.798;11.770;2023-05-10T00:19:41;19.80;45.80
80495;DHT22;69819;48.798;11.770;2023-05-10T00:22:07;19.80;46.00
80495;DHT22;69819;48.798;11.770;2023-05-10T00:24:33;19.80;46.40
80495;DHT22;69819;48.798;11.770;2023-05-10T00:26:59;19.80;47.20
80495;DHT22;69819;48.798;11.770;2023-05-10T00:29:25;19.80;47.70
80495;DHT22;69819;48.798;11.770;2023-05-10T00:31:53;19.80;48.40
80495;DHT22;69819;48.798;11.770;2023-05-10T00:34:19;19.80;48.80
80495;DHT22;69819;48.798;11.770;2023-05-10T00:36:44;19.80;49.30
80495;DHT22;69819;48.798;11.770;2023-05-10T00:39:10;19.80;49.70
80495;DHT22;69819;48.798;11.770;2023-05-10T00:41:36;19.80;50.10
80495;DHT22;69819;48.798;11.770;2023-05-10T00:44:02;19.80;50.50
80495;DHT22;69819;48.798;11.770;2023-05-10T00:46:28;19.80;50.80
80495;DHT22;69819;48.798;11.770;2023-05-10T00:48:54;19.80;51.20
80495;DHT22;69819;48.798;11.770;2023-05-10T00:51:21;19.70;51.40
80495;DHT22;69819;48.798;11.770;2023-05-10T00:53:48;19.70;51.60
80495;DHT22;69819;48.798;11.770;2023-05-10T00:56:16;19.70;52.10
80495;DHT22;69819;48.798;11.770;2023-05-10T00:58:42;19.70;52.20
80495;DHT22;69819;48.798;11.770;2023-05-10T01:01:09;19.70;52.50
80495;DHT22;69819;48.798;11.770;2023-05-10T01:03:36;19.70;52.80
80495;DHT22;69819;48.798;11.770;2023-05-10T01:06:02;19.70;52.90
80495;DHT22;69819;48.798;11.770;2023-05-10T01:08:28;19.70;53.60
80495;DHT22;69819;48.798;11.770;2023-05-10T01:10:55;19.70;53.10
80495;DHT22;69819;48.798;11.770;2023-05-10T01:13:36;19.70;53.20
80495;DHT22;69819;48.798;11.770;2023-05-10T01:16:04;19.70;54.30
80495;DHT22;69819;48.798;11.770;2023-05-10T01:18:34;19.60;53.40
80495;DHT22;69819;48.798;11.770;2023-05-10T01:33:43;19.50;54.40
80495;DHT22;69819;48.798;11.770;2023-05-10T01:39:01;19.50;53.50
80495;DHT22;69819;48.798;11.770;2023-05-10T01:41:52;19.50;54.30
80495;DHT22;69819;48.798;11.770;2023-05-10T01:47:09;19.40;53.80
80495;DHT22;69819;48.798;11.770;2023-05-10T01:49:43;19.50;54.50
80495;DHT22;69819;48.798;11.770;2023-05-10T01:52:15;19.40;54.60
80495;DHT22;69819;48.798;11.770;2023-05-10T01:55:06;19.40;54.20
80495;DHT22;69819;48.798;11.770;2023-05-10T01:57:37;19.40;55.20
80495;DHT22;69819;48.798;11.770;2023-05-10T02:00:07;19.40;54.40
80495;DHT22;69819;48.798;11.770;2023-05-10T02:02:37;19.40;54.50
80495;DHT22;69819;48.798;11.770;2023-05-10T02:05:08;19.30;54.80
80495;DHT22;69819;48.798;11.770;2023-05-10T02:07:38;19.30;54.90
80495;DHT22;69819;48.798;11.770;2023-05-10T02:10:06;19.30;55.00
80495;DHT22;69819;48.798;11.770;2023-05-10T02:12:39;19.30;55.00
80495;DHT22;69819;48.798;11.770;2023-05-10T02:15:07;19.30;55.30
80495;DHT22;69819;48.798;11.770;2023-05-10T02:17:37;19.30;55.00
80495;DHT22;69819;48.798;11.770;2023-05-10T02:20:06;19.30;55.20
80495;DHT22;69819;48.798;11.770;2023-05-10T02:22:35;19.30;55.40
80495;DHT22;69819;48.798;11.770;2023-05-10T02:25:03;19.30;55.50
80495;DHT22;69819;48.798;11.770;2023-05-10T02:27:30;19.30;55.30
80495;DHT22;69819;48.798;11.770;2023-05-10T02:29:57;19.30;55.30
80495;DHT22;69819;48.798;11.770;2023-05-10T02:32:26;19.30;55.50
80495;DHT22;69819;48.798;11.770;2023-05-10T02:34:54;19.30;55.40
80495;DHT22;69819;48.798;11.770;2023-05-10T02:37:22;19.30;55.40
80495;DHT22;69819;48.798;11.770;2023-05-10T02:39:49;19.30;55.40
80495;DHT22;69819;48.798;11.770;2023-05-10T02:42:20;19.30;55.40
80495;DHT22;69819;48.798;11.770;2023-05-10T02:45:03;19.30;55.40
80495;DHT22;69819;48.798;11.770;2023-05-10T02:47:33;19.30;55.40
80495;DHT22;69819;48.798;11.770;2023-05-10T02:49:59;19.30;55.40
80495;DHT22;69819;48.798;11.770;2023-05-10T02:52:30;19.30;55.40
80495;DHT22;69819;48.798;11.770;2023-05-10T02:55:05;19.30;56.00
80495;DHT22;69819;48.798;11.770;2023-05-10T02:57:38;19.30;55.60
80495;DHT22;69819;48.798;11.770;2023-05-10T03:00:08;19.30;56.00
80495;DHT22;69819;48.798;11.770;2023-05-10T03:02:35;19.30;56.30
80495;DHT22;69819;48.798;11.770;2023-05-10T03:05:01;19.30;55.70
80495;DHT22;69819;48.798;11.770;2023-05-10T03:07:28;19.30;55.80
80495;DHT22;69819;48.798;11.770;2023-05-10T03:09:54;19.30;55.80
80495;DHT22;69819;48.798;11.770;2023-05-10T03:20:41;19.30;56.30
80495;DHT22;69819;48.798;11.770;2023-05-10T03:23:19;19.20;56.20
80495;DHT22;69819;48.798;11.770;2023-05-10T03:25:48;19.20;56.40
80495;DHT22;69819;48.798;11.770;2023-05-10T03:28:16;19.20;56.00
80495;DHT22;69819;48.798;11.770;2023-05-10T03:30:43;19.20;56.10
80495;DHT22;69819;48.798;11.770;2023-05-10T03:33:10;19.20;56.20
80495;DHT22;69819;48.798;11.770;2023-05-10T03:35:36;19.20;56.20
80495;DHT22;69819;48.798;11.770;2023-05-10T03:38:02;19.20;56.30
80495;DHT22;69819;48.798;11.770;2023-05-10T03:40:28;19.20;56.40
80495;DHT22;69819;48.798;11.770;2023-05-10T03:42:57;19.20;56.50
80495;DHT22;69819;48.798;11.770;2023-05-10T03:45:26;19.20;56.50
80495;DHT22;69819;48.798;11.770;2023-05-10T03:47:52;19.20;56.50
80495;DHT22;69819;48.798;11.770;2023-05-10T03:50:19;19.20;56.60
80495;DHT22;69819;48.798;11.770;2023-05-10T03:52:45;19.20;56.60
80495;DHT22;69819;48.798;11.770;2023-05-10T03:55:11;19.20;56.70
80495;DHT22;69819;48.798;11.770;2023-05-10T03:57:37;19.20;56.90
80495;DHT22;69819;48.798;11.770;2023-05-10T04:00:04;19.20;56.90
80495;DHT22;69819;48.798;11.770;2023-05-10T04:02:30;19.30;57.00
80495;DHT22;69819;48.798;11.770;2023-05-10T04:04:56;19.30;57.00
80495;DHT22;69819;48.798;11.770;2023-05-10T04:07:22;19.30;57.10
80495;DHT22;69819;48.798;11.770;2023-05-10T04:09:48;19.40;57.10
80495;DHT22;69819;48.798;11.770;2023-05-10T04:12:13;19.40;57.00
80495;DHT22;69819;48.798;11.770;2023-05-10T04:14:39;19.40;57.00
80495;DHT22;69819;48.798;11.770;2023-05-10T04:17:05;19.40;57.00
80495;DHT22;69819;48.798;11.770;2023-05-10T04:19:31;19.40;57.00
80495;DHT22;69819;48.798;11.770;2023-05-10T04:21:57;19.40;57.20
80495;DHT22;69819;48.798;11.770;2023-05-10T04:24:24;19.40;57.10
80495;DHT22;69819;48.798;11.770;2023-05-10T04:26:50;19.40;57.00
80495;DHT22;69819;48.798;11.770;2023-05-10T04:29:16;19.40;57.10
80495;DHT22;69819;48.798;11.770;2023-05-10T04:31:42;19.40;56.90
80495;DHT22;69819;48.798;11.770;2023-05-10T04:34:08;19.40;56.90
80495;DHT22;69819;48.798;11.770;2023-05-10T04:36:34;19.40;56.80
80495;DHT22;69819;48.798;11.770;2023-05-10T04:39:01;19.40;56.80
80495;DHT22;69819;48.798;11.770;2023-05-10T04:41:30;19.50;56.80
80495;DHT22;69819;48.798;11.770;2023-05-10T04:43:56;19.50;56.60
80495;DHT22;69819;48.798;11.770;2023-05-10T04:46:22;19.50;56.60
80495;DHT22;69819;48.798;11.770;2023-05-10T04:48:48;19.50;56.70
80495;DHT22;69819;48.798;11.770;2023-05-10T04:51:14;19.50;56.60
80495;DHT22;69819;48.798;11.770;2023-05-10T04:53:39;19.50;56.50
80495;DHT22;69819;48.798;11.770;2023-05-10T04:56:05;19.50;56.30
80495;DHT22;69819;48.798;11.770;2023-05-10T04:58:32;19.50;56.30
80495;DHT22;69819;48.798;11.770;2023-05-10T05:01:07;19.40;56.30
80495;DHT22;69819;48.798;11.770;2023-05-10T05:03:34;19.50;56.60
80495;DHT22;69819;48.798;11.770;2023-05-10T05:06:00;19.50;56.30
80495;DHT22;69819;48.798;11.770;2023-05-10T05:08:26;19.50;56.20
80495;DHT22;69819;48.798;11.770;2023-05-10T05:10:52;19.50;56.20
80495;DHT22;69819;48.798;11.770;2023-05-10T05:13:18;19.50;56.10
80495;DHT22;69819;48.798;11.770;2023-05-10T05:15:44;19.50;56.20
80495;DHT22;69819;48.798;11.770;2023-05-10T05:18:10;19.50;56.10
80495;DHT22;69819;48.798;11.770;2023-05-10T05:20:35;19.50;56.10
80495;DHT22;69819;48.798;11.770;2023-05-10T05:23:01;19.50;56.10
80495;DHT22;69819;48.798;11.770;2023-05-10T05:25:27;19.50;56.00
80495;DHT22;69819;48.798;11.770;2023-05-10T05:27:53;19.60;56.00
80495;DHT22;69819;48.798;11.770;2023-05-10T05:30:19;19.60;55.90
80495;DHT22;69819;48.798;11.770;2023-05-10T05:32:45;19.60;55.70
80495;DHT22;69819;48.798;11.770;2023-05-10T05:35:12;19.70;55.70
80495;DHT22;69819;48.798;11.770;2023-05-10T05:37:38;19.70;55.80
80495;DHT22;69819;48.798;11.770;2023-05-10T05:40:05;19.70;55.80
80495;DHT22;69819;48.798;11.770;2023-05-10T05:42:31;19.70;55.80
80495;DHT22;69819;48.798;11.770;2023-05-10T05:44:57;19.70;55.90
80495;DHT22;69819;48.798;11.770;2023-05-10T05:47:23;19.80;55.90
80495;DHT22;69819;48.798;11.770;2023-05-10T05:49:49;19.80;56.00
80495;DHT22;69819;48.798;11.770;2023-05-10T05:52:15;19.80;55.90
80495;DHT22;69819;48.798;11.770;2023-05-10T05:54:40;19.80;55.90
80495;DHT22;69819;48.798;11.770;2023-05-10T05:57:06;19.80;55.80
80495;DHT22;69819;48.798;11.770;2023-05-10T05:59:32;19.90;55.70
80495;DHT22;69819;48.798;11.770;2023-05-10T06:01:58;19.90;55.50
80495;DHT22;69819;48.798;11.770;2023-05-10T06:04:24;19.90;55.20
80495;DHT22;69819;48.798;11.770;2023-05-10T06:06:50;20.00;55.20
80495;DHT22;69819;48.798;11.770;2023-05-10T06:09:15;20.00;55.20
80495;DHT22;69819;48.798;11.770;2023-05-10T06:11:41;20.00;55.10
80495;DHT22;69819;48.798;11.770;2023-05-10T06:14:07;20.00;54.90
80495;DHT22;69819;48.798;11.770;2023-05-10T06:16:36;20.00;54.80
80495;DHT22;69819;48.798;11.770;2023-05-10T06:19:02;19.90;54.90
80495;DHT22;69819;48.798;11.770;2023-05-10T06:21:28;19.90;55.10
80495;DHT22;69819;48.798;11.770;2023-05-10T06:23:54;19.90;55.10
80495;DHT22;69819;48.798;11.770;2023-05-10T06:26:20;19.90;55.20
80495;DHT22;69819;48.798;11.770;2023-05-10T06:28:46;19.80;55.20
80495;DHT22;69819;48.798;11.770;2023-05-10T06:31:12;19.80;55.10
80495;DHT22;69819;48.798;11.770;2023-05-10T06:33:37;19.80;55.30
80495;DHT22;69819;48.798;11.770;2023-05-10T06:36:03;19.80;55.20
80495;DHT22;69819;48.798;11.770;2023-05-10T06:38:29;19.80;55.30
80495;DHT22;69819;48.798;11.770;2023-05-10T06:40:55;19.80;55.10
80495;DHT22;69819;48.798;11.770;2023-05-10T06:43:21;19.90;55.30
80495;DHT22;69819;48.798;11.770;2023-05-10T06:45:48;19.80;55.20
80495;DHT22;69819;48.798;11.770;2023-05-10T06:48:13;19.90;55.30
80495;DHT22;69819;48.798;11.770;2023-05-10T06:50:39;20.00;55.40
80495;DHT22;69819;48.798;11.770;2023-05-10T06:53:05;20.10;55.20
80495;DHT22;69819;48.798;11.770;2023-05-10T06:55:31;20.10;55.00
80495;DHT22;69819;48.798;11.770;2023-05-10T06:57:56;20.20;54.70
80495;DHT22;69819;48.798;11.770;2023-05-10T07:00:22;20.30;54.60
80495;DHT22;69819;48.798;11.770;2023-05-10T07:02:48;20.30;54.40
80495;DHT22;69819;48.798;11.770;2023-05-10T07:05:14;20.40;54.20
80495;DHT22;69819;48.798;11.770;2023-05-10T07:07:40;20.40;54.10
80495;DHT22;69819;48.798;11.770;2023-05-10T07:10:07;20.40;54.00
80495;DHT22;69819;48.798;11.770;2023-05-10T07:12:33;20.40;53.90
80495;DHT22;69819;48.798;11.770;2023-05-10T07:14:59;20.40;53.70
80495;DHT22;69819;48.798;11.770;2023-05-10T07:17:24;20.40;53.50
80495;DHT22;69819;48.798;11.770;2023-05-10T07:19:50;20.40;53.80
80495;DHT22;69819;48.798;11.770;2023-05-10T07:22:16;20.50;53.90
80495;DHT22;69819;48.798;11.770;2023-05-10T07:24:42;20.60;54.20
80495;DHT22;69819;48.798;11.770;2023-05-10T07:27:08;20.70;54.40
80495;DHT22;69819;48.798;11.770;2023-05-10T07:29:35;20.90;54.50
80495;DHT22;69819;48.798;11.770;2023-05-10T07:32:01;21.20;54.80
80495;DHT22;69819;48.798;11.770;2023-05-10T07:34:27;21.50;54.60
80495;DHT22;69819;48.798;11.770;2023-05-10T07:36:56;21.90;54.30
80495;DHT22;69819;48.798;11.770;2023-05-10T07:39:23;22.30;54.10
80495;DHT22;69819;48.798;11.770;2023-05-10T07:41:49;22.80;53.70
80495;DHT22;69819;48.798;11.770;2023-05-10T07:44:14;23.20;52.80
80495;DHT22;69819;48.798;11.770;2023-05-10T07:46:43;23.70;51.90
80495;DHT22;69819;48.798;11.770;2023-05-10T07:49:09;24.10;51.10
80495;DHT22;69819;48.798;11.770;2023-05-10T07:51:35;24.50;50.50
80495;DHT22;69819;48.798;11.770;2023-05-10T07:54:01;24.90;49.60
80495;DHT22;69819;48.798;11.770;2023-05-10T07:56:29;25.20;49.00
80495;DHT22;69819;48.798;11.770;2023-05-10T07:59:00;25.50;48.30
80495;DHT22;69819;48.798;11.770;2023-05-10T08:01:29;25.80;48.00
80495;DHT22;69819;48.798;11.770;2023-05-10T08:03:56;26.10;47.50
80495;DHT22;69819;48.798;11.770;2023-05-10T08:06:22;26.40;47.30
80495;DHT22;69819;48.798;11.770;2023-05-10T08:08:49;26.80;46.80
80495;DHT22;69819;48.798;11.770;2023-05-10T08:11:16;27.20;46.70
80495;DHT22;69819;48.798;11.770;2023-05-10T08:13:43;27.60;45.30
80495;DHT22;69819;48.798;11.770;2023-05-10T08:16:10;28.10;44.90
80495;DHT22;69819;48.798;11.770;2023-05-10T08:18:37;28.50;44.00
80495;DHT22;69819;48.798;11.770;2023-05-10T08:21:03;28.90;43.40
80495;DHT22;69819;48.798;11.770;2023-05-10T08:23:29;29.30;42.50
80495;DHT22;69819;48.798;11.770;2023-05-10T08:25:55;29.50;41.90
80495;DHT22;69819;48.798;11.770;2023-05-10T08:28:21;29.70;40.70
80495;DHT22;69819;48.798;11.770;2023-05-10T08:30:46;29.70;40.40
80495;DHT22;69819;48.798;11.770;2023-05-10T08:33:12;29.70;40.30
80495;DHT22;69819;48.798;11.770;2023-05-10T08:35:38;29.60;40.10
80495;DHT22;69819;48.798;11.770;2023-05-10T08:38:04;29.50;40.00
80495;DHT22;69819;48.798;11.770;2023-05-10T08:40:30;29.20;40.00
80495;DHT22;69819;48.798;11.770;2023-05-10T08:43:02;29.00;39.90
80495;DHT22;69819;48.798;11.770;2023-05-10T08:45:33;28.70;40.00
80495;DHT22;69819;48.798;11.770;2023-05-10T08:48:05;28.50;40.40
80495;DHT22;69819;48.798;11.770;2023-05-10T08:50:37;28.20;40.70
80495;DHT22;69819;48.798;11.770;2023-05-10T08:53:11;28.10;40.80
80495;DHT22;69819;48.798;11.770;2023-05-10T08:55:38;28.00;40.80
80495;DHT22;69819;48.798;11.770;2023-05-10T08:58:06;27.80;40.90
80495;DHT22;69819;48.798;11.770;2023-05-10T09:00:32;27.80;40.70
80495;DHT22;69819;48.798;11.770;2023-05-10T09:03:00;27.70;40.80
80495;DHT22;69819;48.798;11.770;2023-05-10T09:05:27;27.60;40.90
80495;DHT22;69819;48.798;11.770;2023-05-10T09:07:53;27.50;41.10
80495;DHT22;69819;48.798;11.770;2023-05-10T09:10:20;27.40;41.30
80495;DHT22;69819;48.798;11.770;2023-05-10T09:12:46;27.30;41.30
80495;DHT22;69819;48.798;11.770;2023-05-10T09:15:15;27.30;41.50
80495;DHT22;69819;48.798;11.770;2023-05-10T09:17:42;27.20;41.50
80495;DHT22;69819;48.798;11.770;2023-05-10T09:20:09;27.20;41.80
80495;DHT22;69819;48.798;11.770;2023-05-10T09:22:35;27.20;42.30
80495;DHT22;69819;48.798;11.770;2023-05-10T09:25:09;27.30;42.50
80495;DHT22;69819;48.798;11.770;2023-05-10T09:27:37;27.50;42.10
80495;DHT22;69819;48.798;11.770;2023-05-10T09:30:05;27.80;41.90
80495;DHT22;69819;48.798;11.770;2023-05-10T09:32:45;27.90;41.20
80495;DHT22;69819;48.798;11.770;2023-05-10T09:35:14;28.00;40.10
80495;DHT22;69819;48.798;11.770;2023-05-10T09:37:43;27.90;40.10
80495;DHT22;69819;48.798;11.770;2023-05-10T09:40:18;27.80;40.00
80495;DHT22;69819;48.798;11.770;2023-05-10T09:45:35;27.40;39.90
80495;DHT22;69819;48.798;11.770;2023-05-10T09:48:02;27.20;40.50
80495;DHT22;69819;48.798;11.770;2023-05-10T09:50:29;27.10;40.80
80495;DHT22;69819;48.798;11.770;2023-05-10T09:52:58;27.00;41.40
80495;DHT22;69819;48.798;11.770;2023-05-10T09:55:46;27.10;41.20
80495;DHT22;69819;48.798;11.770;2023-05-10T09:58:15;27.20;40.40
80495;DHT22;69819;48.798;11.770;2023-05-10T10:00:45;27.40;40.90
80495;DHT22;69819;48.798;11.770;2023-05-10T10:03:18;27.70;40.50
80495;DHT22;69819;48.798;11.770;2023-05-10T10:05:46;28.00;40.40
80495;DHT22;69819;48.798;11.770;2023-05-10T10:08:14;28.40;40.30
80495;DHT22;69819;48.798;11.770;2023-05-10T10:10:41;28.70;39.90
80495;DHT22;69819;48.798;11.770;2023-05-10T10:13:08;29.00;39.60
80495;DHT22;69819;48.798;11.770;2023-05-10T10:15:34;29.30;39.00
80495;DHT22;69819;48.798;11.770;2023-05-10T10:18:01;29.70;38.80
80495;DHT22;69819;48.798;11.770;2023-05-10T10:20:28;30.20;38.90
80495;DHT22;69819;48.798;11.770;2023-05-10T10:22:54;30.80;38.40
80495;DHT22;69819;48.798;11.770;2023-05-10T10:25:21;31.40;37.70
80495;DHT22;69819;48.798;11.770;2023-05-10T10:27:59;31.90;36.90
80495;DHT22;69819;48.798;11.770;2023-05-10T10:30:48;32.40;35.20
80495;DHT22;69819;48.798;11.770;2023-05-10T10:33:51;32.80;34.10
80495;DHT22;69819;48.798;11.770;2023-05-10T10:36:17;33.00;32.90
80495;DHT22;69819;48.798;11.770;2023-05-10T10:41:34;33.20;32.30
80495;DHT22;69819;48.798;11.770;2023-05-10T10:47:25;32.80;31.90
80495;DHT22;69819;48.798;11.770;2023-05-10T10:50:08;32.60;32.40
80495;DHT22;69819;48.798;11.770;2023-05-10T10:55:05;32.20;32.60
80495;DHT22;69819;48.798;11.770;2023-05-10T10:57:49;32.00;32.50
80495;DHT22;69819;48.798;11.770;2023-05-10T11:00:28;31.80;32.20
80495;DHT22;69819;48.798;11.770;2023-05-10T11:03:06;31.60;32.50
80495;DHT22;69819;48.798;11.770;2023-05-10T11:05:48;31.20;31.90
80495;DHT22;69819;48.798;11.770;2023-05-10T11:08:31;30.90;32.00
80495;DHT22;69819;48.798;11.770;2023-05-10T11:13:32;30.30;32.20
80495;DHT22;69819;48.798;11.770;2023-05-10T11:21:28;29.50;32.90
80495;DHT22;69819;48.798;11.770;2023-05-10T11:23:59;29.30;33.60
80495;DHT22;69819;48.798;11.770;2023-05-10T11:26:32;29.20;33.60
80495;DHT22;69819;48.798;11.770;2023-05-10T11:29:00;29.00;33.70
80495;DHT22;69819;48.798;11.770;2023-05-10T11:31:27;29.00;34.50
80495;DHT22;69819;48.798;11.770;2023-05-10T11:33:55;28.90;34.60
80495;DHT22;69819;48.798;11.770;2023-05-10T11:36:27;29.00;34.70
80495;DHT22;69819;48.798;11.770;2023-05-10T11:38:55;29.00;34.40
80495;DHT22;69819;48.798;11.770;2023-05-10T11:41:23;29.10;34.70
80495;DHT22;69819;48.798;11.770;2023-05-10T11:43:50;29.20;34.70
80495;DHT22;69819;48.798;11.770;2023-05-10T11:46:19;29.30;34.10
80495;DHT22;69819;48.798;11.770;2023-05-10T11:48:49;29.50;34.00
80495;DHT22;69819;48.798;11.770;2023-05-10T11:51:23;29.50;34.00
80495;DHT22;69819;48.798;11.770;2023-05-10T11:53:52;29.60;33.90
80495;DHT22;69819;48.798;11.770;2023-05-10T11:56:19;29.60;34.10
80495;DHT22;69819;48.798;11.770;2023-05-10T11:58:55;29.70;34.20
80495;DHT22;69819;48.798;11.770;2023-05-10T12:01:26;29.80;33.90
80495;DHT22;69819;48.798;11.770;2023-05-10T12:03:55;29.90;33.90
80495;DHT22;69819;48.798;11.770;2023-05-10T12:06:31;30.10;33.60
80495;DHT22;69819;48.798;11.770;2023-05-10T12:08:58;30.20;33.30
80495;DHT22;69819;48.798;11.770;2023-05-10T12:11:25;30.30;33.60
80495;DHT22;69819;48.798;11.770;2023-05-10T12:13:54;30.30;33.10
80495;DHT22;69819;48.798;11.770;2023-05-10T12:16:25;30.30;32.90
80495;DHT22;69819;48.798;11.770;2023-05-10T12:18:57;30.20;32.80
80495;DHT22;69819;48.798;11.770;2023-05-10T12:21:25;30.20;32.70
80495;DHT22;69819;48.798;11.770;2023-05-10T12:23:53;30.00;32.80
80495;DHT22;69819;48.798;11.770;2023-05-10T12:26:24;29.80;33.00
80495;DHT22;69819;48.798;11.770;2023-05-10T12:28:53;29.50;33.00
80495;DHT22;69819;48.798;11.770;2023-05-10T12:31:19;29.20;33.10
80495;DHT22;69819;48.798;11.770;2023-05-10T12:33:45;28.90;33.30
80495;DHT22;69819;48.798;11.770;2023-05-10T12:36:13;28.70;33.20
80495;DHT22;69819;48.798;11.770;2023-05-10T12:38:44;28.30;33.60
80495;DHT22;69819;48.798;11.770;2023-05-10T12:41:15;28.00;35.00
80495;DHT22;69819;48.798;11.770;2023-05-10T12:43:43;27.60;35.40
80495;DHT22;69819;48.798;11.770;2023-05-10T12:46:14;27.20;34.30
80495;DHT22;69819;48.798;11.770;2023-05-10T12:48:43;27.00;35.30
80495;DHT22;69819;48.798;11.770;2023-05-10T12:51:10;26.80;35.50
80495;DHT22;69819;48.798;11.770;2023-05-10T12:53:39;26.70;36.30
80495;DHT22;69819;48.798;11.770;2023-05-10T12:56:05;26.50;35.60
80495;DHT22;69819;48.798;11.770;2023-05-10T12:58:31;26.50;35.70
80495;DHT22;69819;48.798;11.770;2023-05-10T13:00:58;26.40;36.10
80495;DHT22;69819;48.798;11.770;2023-05-10T13:03:25;26.40;36.20
80495;DHT22;69819;48.798;11.770;2023-05-10T13:05:51;26.50;36.50
80495;DHT22;69819;48.798;11.770;2023-05-10T13:08:17;26.60;37.10
80495;DHT22;69819;48.798;11.770;2023-05-10T13:10:42;26.60;37.80
80495;DHT22;69819;48.798;11.770;2023-05-10T13:13:09;26.70;38.10
80495;DHT22;69819;48.798;11.770;2023-05-10T13:15:35;26.80;38.00
80495;DHT22;69819;48.798;11.770;2023-05-10T13:18:01;27.00;38.10
80495;DHT22;69819;48.798;11.770;2023-05-10T13:20:27;27.10;37.80
80495;DHT22;69819;48.798;11.770;2023-05-10T13:22:53;27.20;37.90
80495;DHT22;69819;48.798;11.770;2023-05-10T13:25:19;27.30;38.10
80495;DHT22;69819;48.798;11.770;2023-05-10T13:27:45;27.40;38.20
80495;DHT22;69819;48.798;11.770;2023-05-10T13:30:11;27.40;38.10
80495;DHT22;69819;48.798;11.770;2023-05-10T13:32:37;27.50;38.10
80495;DHT22;69819;48.798;11.770;2023-05-10T13:35:04;27.60;37.90
80495;DHT22;69819;48.798;11.770;2023-05-10T13:37:31;27.70;37.80
80495;DHT22;69819;48.798;11.770;2023-05-10T13:39:57;27.70;37.10
80495;DHT22;69819;48.798;11.770;2023-05-10T13:42:23;27.80;36.80
80495;DHT22;69819;48.798;11.770;2023-05-10T13:44:50;27.80;36.70
80495;DHT22;69819;48.798;11.770;2023-05-10T13:47:15;27.80;36.70
80495;DHT22;69819;48.798;11.770;2023-05-10T13:49:41;27.80;36.60
80495;DHT22;69819;48.798;11.770;2023-05-10T13:52:07;27.90;36.90
80495;DHT22;69819;48.798;11.770;2023-05-10T13:54:35;27.90;37.30
80495;DHT22;69819;48.798;11.770;2023-05-10T13:57:02;27.90;37.60
80495;DHT22;69819;48.798;11.770;2023-05-10T13:59:28;28.00;37.50
80495;DHT22;69819;48.798;11.770;2023-05-10T14:01:54;28.00;37.50
80495;DHT22;69819;48.798;11.770;2023-05-10T14:04:20;28.00;37.10
80495;DHT22;69819;48.798;11.770;2023-05-10T14:06:46;28.10;37.80
80495;DHT22;69819;48.798;11.770;2023-05-10T14:09:11;28.10;38.30
80495;DHT22;69819;48.798;11.770;2023-05-10T14:11:38;28.00;37.70
80495;DHT22;69819;48.798;11.770;2023-05-10T14:14:07;28.10;38.20
80495;DHT22;69819;48.798;11.770;2023-05-10T14:16:32;28.00;38.00
80495;DHT22;69819;48.798;11.770;2023-05-10T14:18:58;28.00;37.90
80495;DHT22;69819;48.798;11.770;2023-05-10T14:21:24;28.00;37.80
80495;DHT22;69819;48.798;11.770;2023-05-10T14:23:50;27.90;37.70
80495;DHT22;69819;48.798;11.770;2023-05-10T14:26:16;27.70;37.60
80495;DHT22;69819;48.798;11.770;2023-05-10T14:28:41;27.60;37.50
80495;DHT22;69819;48.798;11.770;2023-05-10T14:31:07;27.40;37.30
80495;DHT22;69819;48.798;11.770;2023-05-10T14:33:33;27.20;37.40
80495;DHT22;69819;48.798;11.770;2023-05-10T14:35:59;27.10;37.40
80495;DHT22;69819;48.798;11.770;2023-05-10T14:38:25;26.90;37.50
80495;DHT22;69819;48.798;11.770;2023-05-10T14:40:51;26.60;37.60
80495;DHT22;69819;48.798;11.770;2023-05-10T14:43:17;26.40;37.70
80495;DHT22;69819;48.798;11.770;2023-05-10T14:45:43;26.20;38.10
80495;DHT22;69819;48.798;11.770;2023-05-10T14:48:10;26.00;38.50
80495;DHT22;69819;48.798;11.770;2023-05-10T14:50:40;25.80;39.00
80495;DHT22;69819;48.798;11.770;2023-05-10T14:53:06;25.50;39.40
80495;DHT22;69819;48.798;11.770;2023-05-10T14:55:32;25.30;39.90
80495;DHT22;69819;48.798;11.770;2023-05-10T14:58:00;25.10;40.20
80495;DHT22;69819;48.798;11.770;2023-05-10T15:00:26;24.90;40.40
80495;DHT22;69819;48.798;11.770;2023-05-10T15:02:52;24.80;41.20
80495;DHT22;69819;48.798;11.770;2023-05-10T15:05:18;24.60;41.30
80495;DHT22;69819;48.798;11.770;2023-05-10T15:07:44;24.40;41.50
80495;DHT22;69819;48.798;11.770;2023-05-10T15:10:10;24.30;41.80
80495;DHT22;69819;48.798;11.770;2023-05-10T15:12:37;24.30;42.20
80495;DHT22;69819;48.798;11.770;2023-05-10T15:15:04;24.20;42.30
80495;DHT22;69819;48.798;11.770;2023-05-10T15:17:30;24.10;42.40
80495;DHT22;69819;48.798;11.770;2023-05-10T15:19:56;24.10;42.60
80495;DHT22;69819;48.798;11.770;2023-05-10T15:22:22;24.00;42.70
80495;DHT22;69819;48.798;11.770;2023-05-10T15:24:48;23.90;42.90
80495;DHT22;69819;48.798;11.770;2023-05-10T15:27:13;23.90;43.00
80495;DHT22;69819;48.798;11.770;2023-05-10T15:29:39;23.80;43.10
80495;DHT22;69819;48.798;11.770;2023-05-10T15:32:05;23.80;43.20
80495;DHT22;69819;48.798;11.770;2023-05-10T15:34:31;23.70;43.30
80495;DHT22;69819;48.798;11.770;2023-05-10T15:36:57;23.60;43.40
80495;DHT22;69819;48.798;11.770;2023-05-10T15:39:23;23.60;43.60
80495;DHT22;69819;48.798;11.770;2023-05-10T15:41:49;23.50;43.80
80495;DHT22;69819;48.798;11.770;2023-05-10T15:44:14;23.40;44.10
80495;DHT22;69819;48.798;11.770;2023-05-10T15:46:40;23.30;44.30
80495;DHT22;69819;48.798;11.770;2023-05-10T15:49:06;23.20;44.40
80495;DHT22;69819;48.798;11.770;2023-05-10T15:51:32;23.10;44.50
80495;DHT22;69819;48.798;11.770;2023-05-10T15:54:00;23.10;44.80
80495;DHT22;69819;48.798;11.770;2023-05-10T15:56:27;23.00;45.00
80495;DHT22;69819;48.798;11.770;2023-05-10T15:58:54;22.90;45.20
80495;DHT22;69819;48.798;11.770;2023-05-10T16:01:20;22.80;44.90
80495;DHT22;69819;48.798;11.770;2023-05-10T16:03:46;22.70;44.90